aviador You're here:

PATC Decoded Metar

TIN CITY in AK, USA
Report Time2018-02-25 10:55:00
UTC Time2018-02-25 11:27:46
Flight Rules mvfr MVFR
Wind010° at 13 kt
W.Decomp.*RWY 34: 12.4 kt HW 3.8 kt RCW
W.Rank010° ranks 4
Current wind is below 010° avg. (18.0)
Visibility9999 m
Phenomena:Light Shower Snow
Clouds:Overcast 013 Hf
Expected CloudBase > 800 ft AGL from Temp-Dew spread
Ceiling1,300 ft
Temp-15°C (ISA -29)
Dew Point-17°C (85% RH)
AAT-23.1°C
QNH1017 hPa
Density Alt-3,570 ft
Elevation272 ft
Report Wrong Elevation
Raw Report
PATC 251055Z AUTO 01013KT 10SM -SHSN OVC013 M15/M17 A3003=

Extra information for PATC:More info

Metar Taf Metar & Taf Last 4 Metars F.Rules Stats Wind Profile Meteogram Temp Stats Airport Information Weather charts Add Link Nearby VenuesMetar ALERT Operation Metar Decoded Social comments

AIRNAV info for PATC